createdAt,value
2023-05-01T00:01:12.235Z,4.85
2023-05-01T00:03:39.779Z,5.47
2023-05-01T00:06:08.090Z,5.15
2023-05-01T00:08:35.365Z,4.70
2023-05-01T00:11:04.097Z,5.68
2023-05-01T00:13:32.128Z,5.85
2023-05-01T00:15:59.543Z,4.47
2023-05-01T00:18:27.189Z,5.07
2023-05-01T00:20:54.448Z,5.05
2023-05-01T00:23:21.624Z,5.10
2023-05-01T00:25:49.591Z,4.50
2023-05-01T00:28:18.825Z,4.75
2023-05-01T00:30:47.203Z,4.57
2023-05-01T00:33:14.453Z,5.10
2023-05-01T00:35:45.197Z,4.90
2023-05-01T00:38:13.175Z,4.63
2023-05-01T00:40:46.729Z,4.35
2023-05-01T00:43:14.049Z,4.75
2023-05-01T00:45:46.168Z,4.32
2023-05-01T00:48:14.971Z,4.43
2023-05-01T00:50:45.473Z,4.43
2023-05-01T00:53:13.212Z,4.50
2023-05-01T00:55:42.866Z,3.90
2023-05-01T00:58:12.182Z,4.32
2023-05-01T01:00:39.636Z,4.40
2023-05-01T01:03:07.198Z,4.75
2023-05-01T01:05:42.046Z,4.40
2023-05-01T01:08:18.252Z,4.15
2023-05-01T01:10:58.529Z,4.25
2023-05-01T01:13:53.139Z,4.10
2023-05-01T01:16:39.189Z,4.63
2023-05-01T01:19:49.490Z,4.00
2023-05-01T01:22:23.161Z,4.00
2023-05-01T01:25:17.626Z,4.50
2023-05-01T01:28:21.990Z,4.80
2023-05-01T01:31:05.767Z,4.88
2023-05-01T01:33:45.913Z,4.55
2023-05-01T01:36:20.330Z,5.15
2023-05-01T01:39:13.210Z,4.63
2023-05-01T01:41:43.053Z,5.18
2023-05-01T01:44:21.584Z,4.87
2023-05-01T01:46:53.165Z,5.13
2023-05-01T01:49:25.014Z,4.97
2023-05-01T01:51:55.308Z,5.03
2023-05-01T01:54:31.482Z,4.45
2023-05-01T01:57:02.649Z,4.72
2023-05-01T01:59:35.220Z,4.72
2023-05-01T02:02:05.557Z,4.97
2023-05-01T02:04:34.209Z,5.50
2023-05-01T02:07:01.682Z,4.78
2023-05-01T02:09:31.133Z,4.53
2023-05-01T02:12:01.016Z,5.03
2023-05-01T02:14:29.154Z,4.47
2023-05-01T02:16:58.939Z,4.95
2023-05-01T02:19:26.869Z,5.37
2023-05-01T02:21:58.660Z,5.03
2023-05-01T02:24:28.805Z,5.90
2023-05-01T02:27:10.254Z,5.00
2023-05-01T02:29:37.856Z,5.72
2023-05-01T02:32:05.455Z,5.05
2023-05-01T02:34:36.052Z,5.10
2023-05-01T02:37:07.036Z,4.90
2023-05-01T02:39:35.617Z,6.03
2023-05-01T02:42:04.664Z,5.68
2023-05-01T02:44:39.922Z,5.55
2023-05-01T02:47:11.310Z,5.55
2023-05-01T02:49:40.963Z,5.68
2023-05-01T02:52:09.328Z,5.68
2023-05-01T02:54:37.038Z,5.60
2023-05-01T02:57:05.422Z,5.47
2023-05-01T02:59:33.609Z,5.55
2023-05-01T03:02:01.040Z,5.75
2023-05-01T03:04:28.502Z,5.95
2023-05-01T03:06:56.586Z,5.95
2023-05-01T03:09:23.910Z,5.57
2023-05-01T03:11:51.345Z,5.60
2023-05-01T03:14:18.846Z,5.65
2023-05-01T03:16:46.388Z,5.13
2023-05-01T03:19:13.673Z,6.20
2023-05-01T03:21:41.211Z,6.38
2023-05-01T03:24:08.555Z,5.63
2023-05-01T03:26:36.013Z,8.45
2023-05-01T03:29:03.530Z,6.45
2023-05-01T03:31:31.550Z,7.18
2023-05-01T03:34:00.122Z,6.13
2023-05-01T03:36:28.549Z,5.50
2023-05-01T03:38:56.560Z,6.22
2023-05-01T03:41:42.456Z,6.55
2023-05-01T03:44:20.690Z,6.35
2023-05-01T03:46:48.266Z,7.38
2023-05-01T03:49:24.085Z,6.82
2023-05-01T03:51:52.231Z,6.93
2023-05-01T03:54:19.499Z,7.03
2023-05-01T03:56:59.392Z,7.15
2023-05-01T03:59:27.274Z,6.57
2023-05-01T04:01:54.567Z,6.75
2023-05-01T04:04:22.035Z,6.60
2023-05-01T04:06:56.224Z,8.43
2023-05-01T04:09:23.482Z,7.50
2023-05-01T04:11:51.035Z,7.38
2023-05-01T04:14:18.386Z,6.80
2023-05-01T04:16:45.903Z,7.80
2023-05-01T04:19:14.376Z,7.50
2023-05-01T04:21:44.314Z,11.02
2023-05-01T04:24:14.708Z,9.02
2023-05-01T04:26:42.964Z,7.53
2023-05-01T04:29:10.927Z,7.93
2023-05-01T04:31:38.354Z,8.15
2023-05-01T04:34:05.683Z,7.75
2023-05-01T04:36:33.271Z,6.60
2023-05-01T04:39:00.848Z,7.70
2023-05-01T04:41:29.422Z,7.22
2023-05-01T04:43:56.699Z,7.35
2023-05-01T04:46:24.044Z,7.97
2023-05-01T04:48:51.472Z,7.45
2023-05-01T04:51:19.881Z,8.85
2023-05-01T04:53:47.574Z,8.40
2023-05-01T04:56:25.263Z,8.80
2023-05-01T04:58:56.698Z,9.52
2023-05-01T05:01:26.521Z,8.25
2023-05-01T05:03:54.599Z,8.50
2023-05-01T05:06:22.781Z,8.40
2023-05-01T05:08:53.699Z,8.05
2023-05-01T05:11:26.857Z,7.25
2023-05-01T05:14:00.701Z,6.47
2023-05-01T05:16:28.127Z,6.97
2023-05-01T05:18:56.956Z,7.15
2023-05-01T05:23:56.275Z,6.80
2023-05-01T05:26:26.996Z,6.10
2023-05-01T05:28:57.400Z,5.00
2023-05-01T05:31:24.916Z,5.20
2023-05-01T05:33:52.426Z,5.97
2023-05-01T05:36:19.850Z,5.55
2023-05-01T05:38:47.330Z,5.72
2023-05-01T05:41:18.431Z,5.60
2023-05-01T05:43:47.180Z,5.72
2023-05-01T05:46:14.477Z,5.50
2023-05-01T05:48:42.919Z,5.60
2023-05-01T05:51:10.785Z,5.95
2023-05-01T05:53:38.260Z,5.30
2023-05-01T05:56:06.128Z,5.43
2023-05-01T05:58:33.868Z,5.50
2023-05-01T06:01:01.155Z,5.18
2023-05-01T06:03:28.707Z,5.65
2023-05-01T06:06:01.046Z,4.93
2023-05-01T06:08:28.681Z,5.13
2023-05-01T06:10:56.696Z,5.57
2023-05-01T06:13:23.973Z,5.30
2023-05-01T06:15:51.611Z,6.00
2023-05-01T06:18:19.663Z,5.40
2023-05-01T06:20:47.884Z,5.50
2023-05-01T06:23:16.570Z,5.40
2023-05-01T06:26:08.034Z,5.70
2023-05-01T06:28:35.435Z,5.70
2023-05-01T06:31:03.486Z,5.95
2023-05-01T06:33:34.789Z,5.32
2023-05-01T06:36:13.583Z,4.90
2023-05-01T06:38:42.285Z,5.65
2023-05-01T06:41:10.558Z,5.45
2023-05-01T06:43:38.100Z,5.07
2023-05-01T06:46:05.395Z,4.93
2023-05-01T06:48:32.676Z,6.30
2023-05-01T06:51:00.085Z,5.47
2023-05-01T06:53:27.358Z,5.28
2023-05-01T06:55:54.719Z,5.57
2023-05-01T06:58:23.819Z,4.95
2023-05-01T07:00:54.012Z,4.10
2023-05-01T07:03:21.799Z,4.78
2023-05-01T07:05:49.085Z,5.45
2023-05-01T07:08:16.371Z,4.93
2023-05-01T07:10:43.667Z,5.47
2023-05-01T07:13:10.883Z,5.00
2023-05-01T07:15:38.350Z,4.80
2023-05-01T07:18:06.193Z,4.50
2023-05-01T07:20:34.767Z,5.15
2023-05-01T07:23:02.241Z,5.70
2023-05-01T07:25:30.039Z,6.32
2023-05-01T07:27:57.422Z,5.43
2023-05-01T07:30:24.894Z,5.80
2023-05-01T07:32:52.872Z,5.05
2023-05-01T07:35:20.446Z,5.13
2023-05-01T07:37:50.595Z,4.95
2023-05-01T07:40:18.541Z,5.45
2023-05-01T07:42:45.778Z,4.80
2023-05-01T07:45:13.944Z,4.90
2023-05-01T07:47:41.876Z,4.35
2023-05-01T07:50:12.836Z,3.67
2023-05-01T07:52:40.070Z,4.18
2023-05-01T07:55:08.875Z,5.22
2023-05-01T07:57:36.255Z,4.63
2023-05-01T08:00:04.288Z,4.68
2023-05-01T08:02:43.646Z,4.38
2023-05-01T08:07:38.114Z,4.50
2023-05-01T08:10:06.048Z,4.25
2023-05-01T08:12:33.361Z,5.00
2023-05-01T08:15:01.412Z,4.70
2023-05-01T08:17:28.634Z,4.22
2023-05-01T08:19:56.828Z,3.65
2023-05-01T08:22:24.530Z,4.10
2023-05-01T08:24:52.005Z,4.55
2023-05-01T08:27:19.400Z,4.20
2023-05-01T08:29:47.092Z,3.95
2023-05-01T08:32:15.547Z,4.28
2023-05-01T08:34:42.757Z,4.10
2023-05-01T08:37:10.071Z,4.13
2023-05-01T08:39:37.619Z,4.47
2023-05-01T08:42:05.285Z,3.78
2023-05-01T08:44:33.201Z,5.22
2023-05-01T08:47:14.580Z,4.50
2023-05-01T08:49:43.132Z,4.38
2023-05-01T08:52:14.689Z,5.18
2023-05-01T08:54:47.209Z,4.10
2023-05-01T08:57:15.929Z,3.95
2023-05-01T08:59:44.779Z,4.22
2023-05-01T09:02:12.398Z,3.72
2023-05-01T09:04:41.842Z,4.43
2023-05-01T09:07:10.498Z,3.60
2023-05-01T09:09:37.786Z,3.60
2023-05-01T09:12:26.358Z,4.20
2023-05-01T09:14:55.438Z,3.95
2023-05-01T09:17:24.161Z,3.45
2023-05-01T09:19:52.231Z,3.10
2023-05-01T09:22:20.378Z,3.40
2023-05-01T09:24:47.738Z,4.78
2023-05-01T09:27:16.174Z,3.97
2023-05-01T09:29:48.093Z,3.20
2023-05-01T09:32:21.602Z,3.75
2023-05-01T09:34:50.672Z,4.00
2023-05-01T09:37:34.367Z,4.18
2023-05-01T09:40:20.072Z,3.97
2023-05-01T09:42:52.297Z,3.80
2023-05-01T09:45:20.478Z,3.30
2023-05-01T09:47:48.255Z,4.32
2023-05-01T09:50:35.562Z,3.70
2023-05-01T09:53:05.123Z,4.10
2023-05-01T09:55:33.589Z,3.17
2023-05-01T09:58:01.158Z,3.80
2023-05-01T10:00:28.474Z,3.05
2023-05-01T10:02:56.225Z,3.80
2023-05-01T10:05:24.817Z,3.47
2023-05-01T10:08:01.130Z,4.28
2023-05-01T10:10:28.680Z,4.38
2023-05-01T10:12:56.116Z,4.38
2023-05-01T10:15:26.760Z,4.20
2023-05-01T10:17:54.857Z,4.78
2023-05-01T10:20:22.414Z,4.28
2023-05-01T10:22:50.005Z,4.63
2023-05-01T10:25:17.894Z,4.18
2023-05-01T10:27:45.494Z,3.67
2023-05-01T10:30:13.001Z,4.00
2023-05-01T10:32:42.338Z,3.00
2023-05-01T10:35:19.860Z,2.60
2023-05-01T10:38:06.499Z,3.40
2023-05-01T10:40:40.233Z,3.47
2023-05-01T10:43:20.424Z,3.60
2023-05-01T10:45:49.238Z,3.60
2023-05-01T10:48:38.952Z,4.00
2023-05-01T10:51:25.630Z,4.10
2023-05-01T10:54:13.571Z,3.72
2023-05-01T10:56:43.226Z,3.58
2023-05-01T10:59:11.644Z,3.47
2023-05-01T11:01:40.278Z,3.50
2023-05-01T11:04:29.881Z,3.72
2023-05-01T11:07:08.005Z,3.35
2023-05-01T11:09:39.400Z,2.35
2023-05-01T11:12:08.072Z,2.00
2023-05-01T11:15:11.254Z,2.60
2023-05-01T11:17:44.309Z,2.53
2023-05-01T11:20:24.627Z,2.63
2023-05-01T11:22:53.733Z,3.40
2023-05-01T11:25:23.089Z,3.55
2023-05-01T11:28:09.705Z,2.55
2023-05-01T11:30:40.406Z,2.55
2023-05-01T11:33:10.396Z,3.20
2023-05-01T11:38:19.025Z,4.20
2023-05-01T11:40:57.517Z,4.88
2023-05-01T11:43:24.835Z,4.47
2023-05-01T11:46:01.930Z,3.83
2023-05-01T11:48:30.258Z,3.72
2023-05-01T11:50:57.592Z,3.38
2023-05-01T11:53:24.981Z,3.90
2023-05-01T11:55:52.381Z,4.40
2023-05-01T11:58:32.221Z,4.45
2023-05-01T12:00:59.682Z,5.15
2023-05-01T12:03:27.380Z,3.95
2023-05-01T12:05:54.935Z,3.95
2023-05-01T12:08:23.401Z,4.10
2023-05-01T12:10:53.710Z,5.00
2023-05-01T12:13:21.546Z,4.03
2023-05-01T12:15:51.859Z,3.88
2023-05-01T12:18:21.630Z,3.40
2023-05-01T12:20:54.373Z,3.63
2023-05-01T12:23:37.513Z,3.30
2023-05-01T12:26:18.371Z,3.33
2023-05-01T12:29:03.471Z,3.55
2023-05-01T12:31:31.808Z,2.78
2023-05-01T12:34:01.035Z,2.33
2023-05-01T12:36:31.769Z,1.90
2023-05-01T12:39:04.902Z,1.95
2023-05-01T12:42:11.337Z,2.50
2023-05-01T12:44:39.175Z,1.52
2023-05-01T12:47:08.423Z,1.92
2023-05-01T12:49:37.294Z,1.52
2023-05-01T12:52:07.603Z,2.22
2023-05-01T12:54:38.093Z,1.48
2023-05-01T12:57:14.731Z,1.20
2023-05-01T12:59:46.464Z,0.90
2023-05-01T13:02:16.192Z,0.80
2023-05-01T13:04:44.711Z,1.17
2023-05-01T13:07:12.795Z,1.15
2023-05-01T13:09:50.775Z,1.58
2023-05-01T13:12:18.220Z,1.80
2023-05-01T13:14:46.545Z,1.60
2023-05-01T13:17:23.036Z,1.67
2023-05-01T13:20:01.687Z,1.85
2023-05-01T13:22:38.749Z,2.28
2023-05-01T13:25:16.110Z,2.38
2023-05-01T13:27:49.728Z,1.75
2023-05-01T13:30:22.094Z,2.15
2023-05-01T13:32:49.857Z,2.15
2023-05-01T13:35:25.296Z,2.25
2023-05-01T13:37:53.687Z,1.92
2023-05-01T13:40:21.469Z,2.08
2023-05-01T13:42:52.737Z,2.33
2023-05-01T13:45:21.342Z,3.17
2023-05-01T13:47:50.744Z,2.17
2023-05-01T13:50:18.413Z,2.33
2023-05-01T13:52:45.990Z,1.95
2023-05-01T13:55:14.500Z,2.15
2023-05-01T13:57:43.336Z,1.65
2023-05-01T14:00:19.268Z,2.10
2023-05-01T14:02:49.196Z,1.90
2023-05-01T14:05:23.253Z,2.05
2023-05-01T14:07:55.502Z,1.92
2023-05-01T14:10:26.430Z,1.80
2023-05-01T14:12:58.852Z,1.60
2023-05-01T14:15:26.900Z,1.92
2023-05-01T14:17:54.362Z,1.90
2023-05-01T14:20:25.303Z,2.28
2023-05-01T14:22:53.577Z,2.30
2023-05-01T14:25:31.456Z,2.10
2023-05-01T14:28:01.216Z,2.63
2023-05-01T14:30:30.032Z,2.38
2023-05-01T14:32:57.361Z,2.05
2023-05-01T14:35:25.062Z,2.20
2023-05-01T14:37:52.382Z,1.77
2023-05-01T14:40:27.761Z,1.88
2023-05-01T14:42:57.701Z,2.20
2023-05-01T14:45:24.930Z,1.90
2023-05-01T14:47:52.139Z,1.88
2023-05-01T14:50:21.550Z,2.47
2023-05-01T14:53:00.464Z,2.22
2023-05-01T14:55:34.734Z,1.80
2023-05-01T14:58:02.076Z,1.73
2023-05-01T15:00:29.601Z,1.92
2023-05-01T15:02:58.893Z,2.08
2023-05-01T15:05:28.318Z,2.35
2023-05-01T15:08:00.804Z,1.73
2023-05-01T15:10:29.111Z,1.90
2023-05-01T15:12:56.599Z,1.90
2023-05-01T15:15:24.048Z,1.70
2023-05-01T15:17:51.533Z,1.67
2023-05-01T15:20:21.975Z,1.98
2023-05-01T15:22:49.200Z,1.77
2023-05-01T15:25:16.582Z,1.45
2023-05-01T15:27:45.734Z,1.40
2023-05-01T15:30:15.251Z,1.35
2023-05-01T15:32:43.140Z,1.25
2023-05-01T15:35:10.781Z,1.50
2023-05-01T15:37:38.419Z,1.60
2023-05-01T15:40:06.404Z,1.63
2023-05-01T15:42:33.777Z,2.10
2023-05-01T15:45:03.452Z,2.50
2023-05-01T15:47:31.057Z,2.30
2023-05-01T15:49:59.940Z,2.30
2023-05-01T15:52:27.483Z,2.42
2023-05-01T15:54:56.323Z,2.72
2023-05-01T15:57:23.948Z,3.00
2023-05-01T15:59:53.875Z,3.70
2023-05-01T16:02:21.803Z,4.13
2023-05-01T16:04:49.577Z,4.10
2023-05-01T16:07:16.807Z,3.95
2023-05-01T16:09:44.188Z,5.07
2023-05-01T16:12:11.977Z,4.55
2023-05-01T16:14:42.459Z,5.90
2023-05-01T16:17:09.901Z,5.13
2023-05-01T16:19:38.469Z,5.43
2023-05-01T16:22:07.013Z,5.50
2023-05-01T16:24:35.126Z,6.40
2023-05-01T16:27:02.717Z,5.97
2023-05-01T16:29:32.925Z,6.50
2023-05-01T16:32:00.678Z,5.75
2023-05-01T16:34:28.135Z,6.50
2023-05-01T16:36:56.585Z,6.65
2023-05-01T16:39:24.270Z,7.88
2023-05-01T16:41:53.778Z,7.22
2023-05-01T16:44:22.454Z,7.53
2023-05-01T16:46:49.869Z,7.65
2023-05-01T16:49:17.482Z,7.57
2023-05-01T16:51:44.814Z,7.32
2023-05-01T16:54:12.140Z,7.55
2023-05-01T16:56:39.767Z,7.35
2023-05-01T16:59:07.029Z,5.60
2023-05-01T17:01:34.725Z,5.82
2023-05-01T17:04:02.668Z,4.68
2023-05-01T17:06:29.979Z,4.70
2023-05-01T17:08:57.253Z,4.63
2023-05-01T17:11:24.687Z,4.40
2023-05-01T17:13:52.623Z,4.95
2023-05-01T17:16:20.186Z,4.55
2023-05-01T17:18:47.526Z,5.35
2023-05-01T17:21:14.735Z,6.05
2023-05-01T17:23:41.969Z,6.50
2023-05-01T17:26:09.249Z,6.75
2023-05-01T17:28:36.894Z,6.90
2023-05-01T17:31:04.190Z,6.47
2023-05-01T17:33:31.461Z,7.80
2023-05-01T17:36:00.767Z,7.00
2023-05-01T17:38:28.117Z,7.28
2023-05-01T17:40:55.376Z,7.82
2023-05-01T17:43:22.608Z,8.57
2023-05-01T17:45:50.241Z,7.13
2023-05-01T17:48:19.736Z,8.57
2023-05-01T17:50:47.853Z,9.20
2023-05-01T17:53:15.578Z,8.15
2023-05-01T17:55:42.883Z,9.95
2023-05-01T17:58:10.177Z,10.25
2023-05-01T18:00:37.572Z,10.30
2023-05-01T18:03:04.965Z,11.77
2023-05-01T18:05:32.293Z,11.20
2023-05-01T18:07:59.671Z,12.82
2023-05-01T18:10:31.188Z,12.35
2023-05-01T18:12:58.739Z,11.98
2023-05-01T18:15:26.375Z,13.13
2023-05-01T18:17:54.066Z,11.90
2023-05-01T18:20:21.533Z,11.95
2023-05-01T18:22:48.782Z,12.13
2023-05-01T18:25:17.174Z,12.40
2023-05-01T18:27:45.614Z,11.32
2023-05-01T18:30:13.021Z,11.93
2023-05-01T18:32:48.318Z,11.27
2023-05-01T18:35:17.764Z,10.57
2023-05-01T18:37:45.097Z,10.18
2023-05-01T18:40:12.837Z,10.02
2023-05-01T18:42:41.863Z,9.77
2023-05-01T18:45:12.429Z,10.02
2023-05-01T18:47:39.733Z,10.00
2023-05-01T18:50:07.724Z,10.35
2023-05-01T18:52:37.097Z,10.30
2023-05-01T18:55:05.167Z,10.32
2023-05-01T18:57:32.624Z,10.70
2023-05-01T19:00:01.274Z,11.65
2023-05-01T19:02:28.952Z,9.77
2023-05-01T19:04:57.976Z,10.70
2023-05-01T19:07:26.748Z,10.20
2023-05-01T19:09:54.152Z,11.55
2023-05-01T19:12:21.552Z,11.52
2023-05-01T19:14:49.076Z,12.95
2023-05-01T19:17:16.671Z,12.93
2023-05-01T19:19:44.362Z,11.88
2023-05-01T19:22:11.654Z,11.68
2023-05-01T19:24:39.226Z,13.82
2023-05-01T19:27:06.472Z,14.50
2023-05-01T19:29:34.131Z,12.93
2023-05-01T19:32:01.571Z,14.48
2023-05-01T19:34:29.155Z,14.80
2023-05-01T19:37:00.353Z,16.10
2023-05-01T19:39:29.538Z,14.63
2023-05-01T19:41:56.988Z,14.98
2023-05-01T19:44:24.413Z,15.07
2023-05-01T19:46:52.069Z,14.35
2023-05-01T19:49:19.505Z,15.18
2023-05-01T19:51:46.760Z,15.90
2023-05-01T19:54:14.100Z,16.67
2023-05-01T19:56:41.713Z,17.83
2023-05-01T19:59:09.134Z,18.13
2023-05-01T20:01:38.843Z,19.85
2023-05-01T20:04:06.459Z,19.33
2023-05-01T20:06:33.819Z,19.52
2023-05-01T20:09:01.249Z,21.23
2023-05-01T20:11:31.327Z,22.45
2023-05-01T20:13:58.897Z,20.98
2023-05-01T20:16:27.784Z,18.40
2023-05-01T20:18:55.503Z,18.45
2023-05-01T20:21:22.737Z,18.05
2023-05-01T20:23:50.937Z,17.92
2023-05-01T20:26:19.634Z,17.80
2023-05-01T20:28:48.386Z,18.60
2023-05-01T20:31:15.875Z,18.20
2023-05-01T20:33:43.392Z,18.73
2023-05-01T20:36:10.807Z,18.33
2023-05-01T20:38:43.117Z,19.27
2023-05-01T20:41:10.595Z,18.58
2023-05-01T20:43:38.676Z,19.45
2023-05-01T20:46:06.054Z,19.20
2023-05-01T20:48:33.296Z,18.40
2023-05-01T20:51:01.736Z,18.45
2023-05-01T20:53:29.058Z,18.85
2023-05-01T20:55:56.261Z,19.80
2023-05-01T20:58:23.554Z,19.67
2023-05-01T21:00:54.527Z,18.48
2023-05-01T21:03:21.918Z,18.10
2023-05-01T21:05:49.431Z,18.33
2023-05-01T21:08:18.095Z,19.50
2023-05-01T21:10:45.394Z,18.70
2023-05-01T21:13:13.236Z,16.23
2023-05-01T21:15:41.416Z,17.25
2023-05-01T21:18:12.291Z,16.15
2023-05-01T21:20:40.890Z,17.48
2023-05-01T21:23:08.256Z,15.73
2023-05-01T21:25:35.745Z,14.35
2023-05-01T21:28:03.603Z,13.63
2023-05-01T21:30:33.604Z,12.98
2023-05-01T21:33:21.439Z,11.18
2023-05-01T21:35:48.851Z,10.88
2023-05-01T21:38:16.504Z,10.65
2023-05-01T21:40:46.137Z,11.90
2023-05-01T21:43:13.766Z,11.23
2023-05-01T21:45:44.607Z,11.73
2023-05-01T21:50:41.475Z,12.32
2023-05-01T21:53:11.790Z,12.80
2023-05-01T21:55:39.135Z,12.80
2023-05-01T21:58:06.484Z,11.35
2023-05-01T22:00:33.793Z,11.13
2023-05-01T22:03:08.842Z,10.23
2023-05-01T22:05:40.836Z,9.38
2023-05-01T22:08:08.074Z,9.80
2023-05-01T22:10:36.361Z,9.10
2023-05-01T22:13:06.273Z,9.43
2023-05-01T22:15:33.757Z,10.07
2023-05-01T22:18:01.158Z,9.43
2023-05-01T22:20:28.523Z,8.60
2023-05-01T22:22:56.441Z,8.60
2023-05-01T22:25:23.652Z,9.20
2023-05-01T22:27:50.983Z,9.95
2023-05-01T22:30:18.295Z,9.88
2023-05-01T22:32:45.765Z,9.68
2023-05-01T22:35:13.088Z,10.55
2023-05-01T22:37:40.281Z,9.25
2023-05-01T22:40:07.987Z,9.25
2023-05-01T22:42:36.126Z,10.10
2023-05-01T22:45:03.574Z,11.05
2023-05-01T22:47:30.942Z,12.05
2023-05-01T22:49:58.457Z,11.82
2023-05-01T22:52:25.851Z,10.60
2023-05-01T22:54:53.118Z,11.07
2023-05-01T22:57:20.272Z,10.20
2023-05-01T22:59:48.309Z,10.73
2023-05-01T23:02:17.469Z,11.38
2023-05-01T23:04:45.659Z,12.73
2023-05-01T23:07:13.555Z,11.25
2023-05-01T23:09:41.664Z,11.25
2023-05-01T23:12:16.705Z,11.52
2023-05-01T23:14:46.146Z,11.48
2023-05-01T23:17:14.527Z,11.55
2023-05-01T23:19:43.489Z,11.70
2023-05-01T23:22:13.068Z,10.60
2023-05-01T23:24:50.911Z,8.93
2023-05-01T23:27:19.727Z,8.73
2023-05-01T23:29:58.308Z,9.77
2023-05-01T23:32:29.546Z,7.90
2023-05-01T23:35:12.555Z,6.53
2023-05-01T23:37:39.779Z,5.47
2023-05-01T23:40:08.504Z,5.50
2023-05-01T23:42:37.721Z,4.70
2023-05-01T23:45:08.295Z,5.70
2023-05-01T23:50:03.600Z,5.85
2023-05-01T23:52:31.044Z,6.68
2023-05-01T23:54:58.176Z,5.97
2023-05-01T23:57:25.822Z,5.68
2023-05-01T23:59:53.143Z,5.70
